sensor_id;sensor_type;location;lat;lon;timestamp;P1;durP1;ratioP1;P2;durP2;ratioP2
25905;SDS011;13713;52.552;13.204;2022-12-18T00:01:57;67.70;;;29.13;;
25905;SDS011;13713;52.552;13.204;2022-12-18T00:04:27;65.65;;;27.02;;
25905;SDS011;13713;52.552;13.204;2022-12-18T00:06:52;67.88;;;27.38;;
25905;SDS011;13713;52.552;13.204;2022-12-18T00:09:19;70.07;;;29.15;;
25905;SDS011;13713;52.552;13.204;2022-12-18T00:11:45;63.20;;;26.98;;
25905;SDS011;13713;52.552;13.204;2022-12-18T00:14:12;67.25;;;28.00;;
25905;SDS011;13713;52.552;13.204;2022-12-18T00:16:38;73.03;;;30.58;;
25905;SDS011;13713;52.552;13.204;2022-12-18T00:19:04;65.47;;;27.80;;
25905;SDS011;13713;52.552;13.204;2022-12-18T00:21:31;68.57;;;28.08;;
25905;SDS011;13713;52.552;13.204;2022-12-18T00:23:58;62.28;;;26.50;;
25905;SDS011;13713;52.552;13.204;2022-12-18T00:26:25;63.85;;;28.58;;
25905;SDS011;13713;52.552;13.204;2022-12-18T00:29:00;65.35;;;28.00;;
25905;SDS011;13713;52.552;13.204;2022-12-18T00:31:29;64.13;;;27.73;;
25905;SDS011;13713;52.552;13.204;2022-12-18T00:33:55;66.03;;;27.48;;
25905;SDS011;13713;52.552;13.204;2022-12-18T00:36:25;65.72;;;28.80;;
25905;SDS011;13713;52.552;13.204;2022-12-18T00:38:53;66.65;;;26.50;;
25905;SDS011;13713;52.552;13.204;2022-12-18T00:41:20;65.63;;;27.90;;
25905;SDS011;13713;52.552;13.204;2022-12-18T00:44:05;64.00;;;26.65;;
25905;SDS011;13713;52.552;13.204;2022-12-18T00:46:32;68.00;;;27.77;;
25905;SDS011;13713;52.552;13.204;2022-12-18T00:48:58;67.18;;;28.42;;
25905;SDS011;13713;52.552;13.204;2022-12-18T00:51:24;69.97;;;28.08;;
25905;SDS011;13713;52.552;13.204;2022-12-18T00:53:50;62.85;;;26.85;;
25905;SDS011;13713;52.552;13.204;2022-12-18T00:56:16;67.88;;;29.05;;
25905;SDS011;13713;52.552;13.204;2022-12-18T00:58:41;61.15;;;27.27;;
25905;SDS011;13713;52.552;13.204;2022-12-18T01:01:07;68.47;;;27.80;;
25905;SDS011;13713;52.552;13.204;2022-12-18T01:03:33;65.00;;;27.75;;
25905;SDS011;13713;52.552;13.204;2022-12-18T01:05:59;71.22;;;28.55;;
25905;SDS011;13713;52.552;13.204;2022-12-18T01:08:29;66.22;;;26.92;;
25905;SDS011;13713;52.552;13.204;2022-12-18T01:10:55;66.40;;;28.10;;
25905;SDS011;13713;52.552;13.204;2022-12-18T01:13:21;70.70;;;28.92;;
25905;SDS011;13713;52.552;13.204;2022-12-18T01:15:49;65.03;;;27.92;;
25905;SDS011;13713;52.552;13.204;2022-12-18T01:18:15;67.47;;;28.30;;
25905;SDS011;13713;52.552;13.204;2022-12-18T01:20:41;68.05;;;29.75;;
25905;SDS011;13713;52.552;13.204;2022-12-18T01:23:07;65.45;;;28.38;;
25905;SDS011;13713;52.552;13.204;2022-12-18T01:25:33;66.95;;;28.60;;
25905;SDS011;13713;52.552;13.204;2022-12-18T01:28:01;68.95;;;28.33;;
25905;SDS011;13713;52.552;13.204;2022-12-18T01:30:27;70.32;;;28.73;;
25905;SDS011;13713;52.552;13.204;2022-12-18T01:32:53;69.43;;;28.33;;
25905;SDS011;13713;52.552;13.204;2022-12-18T01:35:18;70.53;;;29.10;;
25905;SDS011;13713;52.552;13.204;2022-12-18T01:37:45;69.25;;;28.77;;
25905;SDS011;13713;52.552;13.204;2022-12-18T01:40:11;64.97;;;28.05;;
25905;SDS011;13713;52.552;13.204;2022-12-18T01:42:38;72.18;;;30.05;;
25905;SDS011;13713;52.552;13.204;2022-12-18T01:47:53;68.60;;;28.48;;
25905;SDS011;13713;52.552;13.204;2022-12-18T01:50:34;70.95;;;28.27;;
25905;SDS011;13713;52.552;13.204;2022-12-18T01:53:11;64.47;;;27.77;;
25905;SDS011;13713;52.552;13.204;2022-12-18T01:55:47;65.30;;;27.83;;
25905;SDS011;13713;52.552;13.204;2022-12-18T01:58:16;67.32;;;28.48;;
25905;SDS011;13713;52.552;13.204;2022-12-18T02:00:43;68.45;;;28.65;;
25905;SDS011;13713;52.552;13.204;2022-12-18T02:03:09;68.25;;;29.25;;
25905;SDS011;13713;52.552;13.204;2022-12-18T02:11:05;64.68;;;28.27;;
25905;SDS011;13713;52.552;13.204;2022-12-18T02:13:51;69.28;;;27.80;;
25905;SDS011;13713;52.552;13.204;2022-12-18T02:16:42;64.93;;;27.65;;
25905;SDS011;13713;52.552;13.204;2022-12-18T02:19:16;68.82;;;29.25;;
25905;SDS011;13713;52.552;13.204;2022-12-18T02:22:00;75.10;;;29.58;;
25905;SDS011;13713;52.552;13.204;2022-12-18T02:27:28;70.13;;;28.63;;
25905;SDS011;13713;52.552;13.204;2022-12-18T02:29:58;61.92;;;26.70;;
25905;SDS011;13713;52.552;13.204;2022-12-18T02:32:28;68.57;;;29.02;;
25905;SDS011;13713;52.552;13.204;2022-12-18T02:34:57;68.90;;;28.00;;
25905;SDS011;13713;52.552;13.204;2022-12-18T02:37:26;72.07;;;29.08;;
25905;SDS011;13713;52.552;13.204;2022-12-18T02:39:56;67.45;;;27.90;;
25905;SDS011;13713;52.552;13.204;2022-12-18T02:42:24;67.57;;;27.48;;
25905;SDS011;13713;52.552;13.204;2022-12-18T02:44:51;70.03;;;28.40;;
25905;SDS011;13713;52.552;13.204;2022-12-18T02:47:22;69.50;;;28.47;;
25905;SDS011;13713;52.552;13.204;2022-12-18T02:52:42;68.07;;;27.67;;
25905;SDS011;13713;52.552;13.204;2022-12-18T02:55:37;69.13;;;27.13;;
25905;SDS011;13713;52.552;13.204;2022-12-18T03:01:04;65.22;;;27.33;;
25905;SDS011;13713;52.552;13.204;2022-12-18T03:03:48;47.58;;;20.10;;
25905;SDS011;13713;52.552;13.204;2022-12-18T03:09:17;69.00;;;27.85;;
25905;SDS011;13713;52.552;13.204;2022-12-18T03:11:52;67.70;;;28.27;;
25905;SDS011;13713;52.552;13.204;2022-12-18T03:14:39;70.78;;;28.38;;
25905;SDS011;13713;52.552;13.204;2022-12-18T03:17:11;66.75;;;27.67;;
25905;SDS011;13713;52.552;13.204;2022-12-18T03:19:41;67.82;;;27.27;;
25905;SDS011;13713;52.552;13.204;2022-12-18T03:22:09;74.32;;;29.50;;
25905;SDS011;13713;52.552;13.204;2022-12-18T03:24:44;70.30;;;28.23;;
25905;SDS011;13713;52.552;13.204;2022-12-18T03:27:12;61.35;;;26.58;;
25905;SDS011;13713;52.552;13.204;2022-12-18T03:29:50;67.60;;;26.88;;
25905;SDS011;13713;52.552;13.204;2022-12-18T03:34:52;69.03;;;26.83;;
25905;SDS011;13713;52.552;13.204;2022-12-18T03:37:24;68.20;;;27.42;;
25905;SDS011;13713;52.552;13.204;2022-12-18T03:39:51;73.43;;;30.55;;
25905;SDS011;13713;52.552;13.204;2022-12-18T03:42:37;73.18;;;28.67;;
25905;SDS011;13713;52.552;13.204;2022-12-18T03:45:12;70.07;;;28.45;;
25905;SDS011;13713;52.552;13.204;2022-12-18T03:55:53;74.95;;;28.02;;
25905;SDS011;13713;52.552;13.204;2022-12-18T03:58:22;69.13;;;28.02;;
25905;SDS011;13713;52.552;13.204;2022-12-18T04:00:56;67.40;;;27.40;;
25905;SDS011;13713;52.552;13.204;2022-12-18T04:03:26;73.07;;;28.02;;
25905;SDS011;13713;52.552;13.204;2022-12-18T04:05:56;68.60;;;28.27;;
25905;SDS011;13713;52.552;13.204;2022-12-18T04:08:26;64.53;;;26.85;;
25905;SDS011;13713;52.552;13.204;2022-12-18T04:11:01;69.78;;;27.48;;
25905;SDS011;13713;52.552;13.204;2022-12-18T04:13:28;70.13;;;27.70;;
25905;SDS011;13713;52.552;13.204;2022-12-18T04:15:58;68.30;;;27.85;;
25905;SDS011;13713;52.552;13.204;2022-12-18T04:18:24;69.75;;;28.55;;
25905;SDS011;13713;52.552;13.204;2022-12-18T04:20:50;66.93;;;26.27;;
25905;SDS011;13713;52.552;13.204;2022-12-18T04:23:16;63.78;;;26.52;;
25905;SDS011;13713;52.552;13.204;2022-12-18T04:25:42;72.45;;;28.58;;
25905;SDS011;13713;52.552;13.204;2022-12-18T04:28:13;71.43;;;27.47;;
25905;SDS011;13713;52.552;13.204;2022-12-18T04:30:39;73.07;;;27.95;;
25905;SDS011;13713;52.552;13.204;2022-12-18T04:33:11;69.47;;;27.55;;
25905;SDS011;13713;52.552;13.204;2022-12-18T04:35:44;68.70;;;26.75;;
25905;SDS011;13713;52.552;13.204;2022-12-18T04:38:10;72.55;;;27.85;;
25905;SDS011;13713;52.552;13.204;2022-12-18T04:40:37;66.32;;;27.40;;
25905;SDS011;13713;52.552;13.204;2022-12-18T04:43:10;64.40;;;26.80;;
25905;SDS011;13713;52.552;13.204;2022-12-18T04:45:35;71.68;;;28.75;;
25905;SDS011;13713;52.552;13.204;2022-12-18T04:48:01;71.40;;;28.63;;
25905;SDS011;13713;52.552;13.204;2022-12-18T04:50:28;65.95;;;26.92;;
25905;SDS011;13713;52.552;13.204;2022-12-18T04:52:54;72.40;;;28.17;;
25905;SDS011;13713;52.552;13.204;2022-12-18T04:55:20;71.45;;;26.65;;
25905;SDS011;13713;52.552;13.204;2022-12-18T04:57:49;71.35;;;27.85;;
25905;SDS011;13713;52.552;13.204;2022-12-18T05:00:15;73.68;;;28.50;;
25905;SDS011;13713;52.552;13.204;2022-12-18T05:02:40;68.47;;;27.50;;
25905;SDS011;13713;52.552;13.204;2022-12-18T05:05:07;74.88;;;28.65;;
25905;SDS011;13713;52.552;13.204;2022-12-18T05:07:33;71.72;;;27.33;;
25905;SDS011;13713;52.552;13.204;2022-12-18T05:09:58;77.57;;;29.02;;
25905;SDS011;13713;52.552;13.204;2022-12-18T05:12:24;73.72;;;28.70;;
25905;SDS011;13713;52.552;13.204;2022-12-18T05:14:50;71.32;;;27.45;;
25905;SDS011;13713;52.552;13.204;2022-12-18T05:17:16;72.13;;;28.75;;
25905;SDS011;13713;52.552;13.204;2022-12-18T05:19:41;75.00;;;28.83;;
25905;SDS011;13713;52.552;13.204;2022-12-18T05:22:07;74.07;;;28.60;;
25905;SDS011;13713;52.552;13.204;2022-12-18T05:24:33;74.95;;;29.20;;
25905;SDS011;13713;52.552;13.204;2022-12-18T05:26:59;73.93;;;27.70;;
25905;SDS011;13713;52.552;13.204;2022-12-18T05:29:25;73.63;;;28.08;;
25905;SDS011;13713;52.552;13.204;2022-12-18T05:31:50;73.45;;;29.83;;
25905;SDS011;13713;52.552;13.204;2022-12-18T05:34:16;68.28;;;27.92;;
25905;SDS011;13713;52.552;13.204;2022-12-18T05:36:42;73.30;;;28.65;;
25905;SDS011;13713;52.552;13.204;2022-12-18T05:39:08;74.82;;;30.27;;
25905;SDS011;13713;52.552;13.204;2022-12-18T05:41:34;75.78;;;28.58;;
25905;SDS011;13713;52.552;13.204;2022-12-18T05:43:59;77.10;;;30.67;;
25905;SDS011;13713;52.552;13.204;2022-12-18T05:46:25;72.85;;;29.30;;
25905;SDS011;13713;52.552;13.204;2022-12-18T05:48:51;77.18;;;30.27;;
25905;SDS011;13713;52.552;13.204;2022-12-18T05:51:18;77.22;;;28.30;;
25905;SDS011;13713;52.552;13.204;2022-12-18T05:53:46;74.63;;;29.88;;
25905;SDS011;13713;52.552;13.204;2022-12-18T05:56:17;77.57;;;29.60;;
25905;SDS011;13713;52.552;13.204;2022-12-18T05:58:45;76.20;;;29.35;;
25905;SDS011;13713;52.552;13.204;2022-12-18T06:01:16;72.35;;;29.35;;
25905;SDS011;13713;52.552;13.204;2022-12-18T06:03:43;75.75;;;29.30;;
25905;SDS011;13713;52.552;13.204;2022-12-18T06:06:16;74.63;;;29.92;;
25905;SDS011;13713;52.552;13.204;2022-12-18T06:08:43;71.40;;;29.33;;
25905;SDS011;13713;52.552;13.204;2022-12-18T06:11:10;83.78;;;29.80;;
25905;SDS011;13713;52.552;13.204;2022-12-18T06:13:36;69.88;;;28.58;;
25905;SDS011;13713;52.552;13.204;2022-12-18T06:16:05;74.97;;;29.75;;
25905;SDS011;13713;52.552;13.204;2022-12-18T06:18:31;78.72;;;29.40;;
25905;SDS011;13713;52.552;13.204;2022-12-18T06:20:58;70.95;;;28.90;;
25905;SDS011;13713;52.552;13.204;2022-12-18T06:23:24;77.13;;;29.70;;
25905;SDS011;13713;52.552;13.204;2022-12-18T06:25:50;71.20;;;28.70;;
25905;SDS011;13713;52.552;13.204;2022-12-18T06:28:16;79.65;;;30.33;;
25905;SDS011;13713;52.552;13.204;2022-12-18T06:30:45;82.25;;;30.55;;
25905;SDS011;13713;52.552;13.204;2022-12-18T06:33:12;73.70;;;28.75;;
25905;SDS011;13713;52.552;13.204;2022-12-18T06:35:37;76.05;;;29.42;;
25905;SDS011;13713;52.552;13.204;2022-12-18T06:38:03;76.00;;;30.15;;
25905;SDS011;13713;52.552;13.204;2022-12-18T06:40:29;75.25;;;28.67;;
25905;SDS011;13713;52.552;13.204;2022-12-18T06:42:54;74.18;;;28.80;;
25905;SDS011;13713;52.552;13.204;2022-12-18T06:45:20;74.18;;;30.27;;
25905;SDS011;13713;52.552;13.204;2022-12-18T06:47:46;76.60;;;30.02;;
25905;SDS011;13713;52.552;13.204;2022-12-18T06:50:12;79.53;;;31.02;;
25905;SDS011;13713;52.552;13.204;2022-12-18T06:52:39;72.57;;;29.35;;
25905;SDS011;13713;52.552;13.204;2022-12-18T06:55:06;73.00;;;28.05;;
25905;SDS011;13713;52.552;13.204;2022-12-18T06:57:33;76.03;;;28.92;;
25905;SDS011;13713;52.552;13.204;2022-12-18T06:59:59;70.68;;;28.35;;
25905;SDS011;13713;52.552;13.204;2022-12-18T07:02:25;76.60;;;29.23;;
25905;SDS011;13713;52.552;13.204;2022-12-18T07:04:50;67.65;;;27.80;;
25905;SDS011;13713;52.552;13.204;2022-12-18T07:07:16;73.72;;;29.85;;
25905;SDS011;13713;52.552;13.204;2022-12-18T07:09:42;77.90;;;30.38;;
25905;SDS011;13713;52.552;13.204;2022-12-18T07:12:07;81.32;;;30.42;;
25905;SDS011;13713;52.552;13.204;2022-12-18T07:14:33;72.22;;;28.77;;
25905;SDS011;13713;52.552;13.204;2022-12-18T07:16:59;74.72;;;29.25;;
25905;SDS011;13713;52.552;13.204;2022-12-18T07:19:24;76.60;;;29.35;;
25905;SDS011;13713;52.552;13.204;2022-12-18T07:21:50;80.05;;;30.30;;
25905;SDS011;13713;52.552;13.204;2022-12-18T07:24:16;74.72;;;29.58;;
25905;SDS011;13713;52.552;13.204;2022-12-18T07:26:42;75.75;;;29.90;;
25905;SDS011;13713;52.552;13.204;2022-12-18T07:29:10;72.05;;;27.95;;
25905;SDS011;13713;52.552;13.204;2022-12-18T07:31:36;73.13;;;29.10;;
25905;SDS011;13713;52.552;13.204;2022-12-18T07:34:01;74.43;;;28.63;;
25905;SDS011;13713;52.552;13.204;2022-12-18T07:36:27;77.18;;;29.23;;
25905;SDS011;13713;52.552;13.204;2022-12-18T07:38:53;73.65;;;29.23;;
25905;SDS011;13713;52.552;13.204;2022-12-18T07:41:19;74.65;;;29.27;;
25905;SDS011;13713;52.552;13.204;2022-12-18T07:43:45;74.68;;;29.00;;
25905;SDS011;13713;52.552;13.204;2022-12-18T07:46:11;74.82;;;29.33;;
25905;SDS011;13713;52.552;13.204;2022-12-18T07:48:44;75.45;;;28.60;;
25905;SDS011;13713;52.552;13.204;2022-12-18T07:51:10;73.78;;;31.15;;
25905;SDS011;13713;52.552;13.204;2022-12-18T07:53:36;79.68;;;31.42;;
25905;SDS011;13713;52.552;13.204;2022-12-18T07:56:06;68.53;;;28.10;;
25905;SDS011;13713;52.552;13.204;2022-12-18T07:58:36;75.05;;;28.77;;
25905;SDS011;13713;52.552;13.204;2022-12-18T08:01:11;74.25;;;29.30;;
25905;SDS011;13713;52.552;13.204;2022-12-18T08:03:38;78.18;;;31.00;;
25905;SDS011;13713;52.552;13.204;2022-12-18T08:06:06;81.68;;;30.17;;
25905;SDS011;13713;52.552;13.204;2022-12-18T08:08:33;75.72;;;29.63;;
25905;SDS011;13713;52.552;13.204;2022-12-18T08:11:00;76.72;;;29.00;;
25905;SDS011;13713;52.552;13.204;2022-12-18T08:13:26;75.93;;;28.50;;
25905;SDS011;13713;52.552;13.204;2022-12-18T08:15:59;75.60;;;30.33;;
25905;SDS011;13713;52.552;13.204;2022-12-18T08:18:26;73.18;;;29.40;;
25905;SDS011;13713;52.552;13.204;2022-12-18T08:20:53;71.00;;;29.52;;
25905;SDS011;13713;52.552;13.204;2022-12-18T08:23:19;77.85;;;30.42;;
25905;SDS011;13713;52.552;13.204;2022-12-18T08:25:45;77.43;;;29.38;;
25905;SDS011;13713;52.552;13.204;2022-12-18T08:28:10;80.35;;;30.10;;
25905;SDS011;13713;52.552;13.204;2022-12-18T08:30:36;78.18;;;31.48;;
25905;SDS011;13713;52.552;13.204;2022-12-18T08:33:03;79.25;;;30.17;;
25905;SDS011;13713;52.552;13.204;2022-12-18T08:35:29;77.32;;;30.52;;
25905;SDS011;13713;52.552;13.204;2022-12-18T08:37:54;76.10;;;29.38;;
25905;SDS011;13713;52.552;13.204;2022-12-18T08:40:20;83.25;;;31.00;;
25905;SDS011;13713;52.552;13.204;2022-12-18T08:42:46;74.43;;;29.52;;
25905;SDS011;13713;52.552;13.204;2022-12-18T08:45:30;76.50;;;30.42;;
25905;SDS011;13713;52.552;13.204;2022-12-18T08:47:58;78.40;;;30.83;;
25905;SDS011;13713;52.552;13.204;2022-12-18T08:50:24;72.88;;;29.55;;
25905;SDS011;13713;52.552;13.204;2022-12-18T08:52:50;80.75;;;31.52;;
25905;SDS011;13713;52.552;13.204;2022-12-18T08:55:15;73.90;;;30.27;;
25905;SDS011;13713;52.552;13.204;2022-12-18T08:57:41;80.78;;;31.60;;
25905;SDS011;13713;52.552;13.204;2022-12-18T09:00:07;76.05;;;30.45;;
25905;SDS011;13713;52.552;13.204;2022-12-18T09:02:33;76.60;;;29.73;;
25905;SDS011;13713;52.552;13.204;2022-12-18T09:04:59;79.82;;;29.65;;
25905;SDS011;13713;52.552;13.204;2022-12-18T09:07:24;80.80;;;31.17;;
25905;SDS011;13713;52.552;13.204;2022-12-18T09:09:50;84.18;;;31.00;;
25905;SDS011;13713;52.552;13.204;2022-12-18T09:12:16;74.63;;;30.63;;
25905;SDS011;13713;52.552;13.204;2022-12-18T09:14:41;80.78;;;31.58;;
25905;SDS011;13713;52.552;13.204;2022-12-18T09:17:07;78.97;;;30.60;;
25905;SDS011;13713;52.552;13.204;2022-12-18T09:19:33;78.55;;;29.52;;
25905;SDS011;13713;52.552;13.204;2022-12-18T09:21:58;76.95;;;30.02;;
25905;SDS011;13713;52.552;13.204;2022-12-18T09:24:24;85.70;;;31.98;;
25905;SDS011;13713;52.552;13.204;2022-12-18T09:26:52;78.40;;;30.60;;
25905;SDS011;13713;52.552;13.204;2022-12-18T09:29:20;70.68;;;29.52;;
25905;SDS011;13713;52.552;13.204;2022-12-18T09:31:45;81.40;;;31.33;;
25905;SDS011;13713;52.552;13.204;2022-12-18T09:34:12;80.18;;;30.55;;
25905;SDS011;13713;52.552;13.204;2022-12-18T09:36:37;81.80;;;31.20;;
25905;SDS011;13713;52.552;13.204;2022-12-18T09:39:03;76.22;;;28.30;;
25905;SDS011;13713;52.552;13.204;2022-12-18T09:41:35;79.07;;;31.00;;
25905;SDS011;13713;52.552;13.204;2022-12-18T09:47:16;76.25;;;29.55;;
25905;SDS011;13713;52.552;13.204;2022-12-18T09:50:04;73.65;;;29.77;;
25905;SDS011;13713;52.552;13.204;2022-12-18T09:52:42;76.22;;;30.38;;
25905;SDS011;13713;52.552;13.204;2022-12-18T09:57:49;75.90;;;30.60;;
25905;SDS011;13713;52.552;13.204;2022-12-18T10:00:21;79.00;;;31.52;;
25905;SDS011;13713;52.552;13.204;2022-12-18T10:02:48;77.05;;;30.15;;
25905;SDS011;13713;52.552;13.204;2022-12-18T10:05:17;81.43;;;31.77;;
25905;SDS011;13713;52.552;13.204;2022-12-18T10:07:58;76.47;;;30.00;;
25905;SDS011;13713;52.552;13.204;2022-12-18T10:13:23;79.88;;;29.48;;
25905;SDS011;13713;52.552;13.204;2022-12-18T10:21:19;73.07;;;29.10;;
25905;SDS011;13713;52.552;13.204;2022-12-18T10:26:31;75.18;;;29.02;;
25905;SDS011;13713;52.552;13.204;2022-12-18T10:28:58;81.32;;;31.52;;
25905;SDS011;13713;52.552;13.204;2022-12-18T10:31:24;75.38;;;30.92;;
25905;SDS011;13713;52.552;13.204;2022-12-18T10:33:50;72.63;;;29.67;;
25905;SDS011;13713;52.552;13.204;2022-12-18T10:36:18;81.38;;;31.25;;
25905;SDS011;13713;52.552;13.204;2022-12-18T10:38:45;75.50;;;29.92;;
25905;SDS011;13713;52.552;13.204;2022-12-18T10:43:42;78.32;;;30.75;;
25905;SDS011;13713;52.552;13.204;2022-12-18T10:48:40;75.65;;;29.85;;
25905;SDS011;13713;52.552;13.204;2022-12-18T10:53:51;80.72;;;30.67;;
25905;SDS011;13713;52.552;13.204;2022-12-18T10:56:23;77.40;;;30.80;;
25905;SDS011;13713;52.552;13.204;2022-12-18T10:58:55;82.97;;;31.50;;
25905;SDS011;13713;52.552;13.204;2022-12-18T11:01:45;72.20;;;29.67;;
25905;SDS011;13713;52.552;13.204;2022-12-18T11:04:16;77.93;;;30.85;;
25905;SDS011;13713;52.552;13.204;2022-12-18T11:06:52;80.32;;;30.70;;
25905;SDS011;13713;52.552;13.204;2022-12-18T11:09:32;86.10;;;30.60;;
25905;SDS011;13713;52.552;13.204;2022-12-18T11:12:00;76.85;;;31.33;;
25905;SDS011;13713;52.552;13.204;2022-12-18T11:16:56;71.80;;;29.38;;
25905;SDS011;13713;52.552;13.204;2022-12-18T11:19:27;74.25;;;30.00;;
25905;SDS011;13713;52.552;13.204;2022-12-18T11:22:02;77.82;;;29.83;;
25905;SDS011;13713;52.552;13.204;2022-12-18T11:24:42;82.22;;;30.92;;
25905;SDS011;13713;52.552;13.204;2022-12-18T11:27:17;73.88;;;29.23;;
25905;SDS011;13713;52.552;13.204;2022-12-18T11:29:44;80.50;;;32.13;;
25905;SDS011;13713;52.552;13.204;2022-12-18T11:32:27;77.22;;;29.20;;
25905;SDS011;13713;52.552;13.204;2022-12-18T11:37:31;74.60;;;29.13;;
25905;SDS011;13713;52.552;13.204;2022-12-18T11:39:59;74.70;;;29.65;;
25905;SDS011;13713;52.552;13.204;2022-12-18T11:47:43;76.95;;;30.63;;
25905;SDS011;13713;52.552;13.204;2022-12-18T11:50:25;76.50;;;30.20;;
25905;SDS011;13713;52.552;13.204;2022-12-18T11:53:11;75.78;;;30.13;;
25905;SDS011;13713;52.552;13.204;2022-12-18T11:58:27;77.72;;;31.52;;
25905;SDS011;13713;52.552;13.204;2022-12-18T12:01:10;76.70;;;31.17;;
25905;SDS011;13713;52.552;13.204;2022-12-18T12:06:32;76.65;;;32.05;;
25905;SDS011;13713;52.552;13.204;2022-12-18T12:09:19;73.32;;;28.48;;
25905;SDS011;13713;52.552;13.204;2022-12-18T12:17:08;74.00;;;29.70;;
25905;SDS011;13713;52.552;13.204;2022-12-18T12:19:51;71.38;;;29.25;;
25905;SDS011;13713;52.552;13.204;2022-12-18T12:22:35;74.55;;;29.13;;
25905;SDS011;13713;52.552;13.204;2022-12-18T12:34:20;77.22;;;30.70;;
25905;SDS011;13713;52.552;13.204;2022-12-18T12:39:40;74.72;;;29.98;;
25905;SDS011;13713;52.552;13.204;2022-12-18T12:42:12;76.32;;;29.45;;
25905;SDS011;13713;52.552;13.204;2022-12-18T12:45:29;74.63;;;29.17;;
25905;SDS011;13713;52.552;13.204;2022-12-18T12:51:13;73.22;;;29.15;;
25905;SDS011;13713;52.552;13.204;2022-12-18T12:53:40;76.32;;;30.33;;
25905;SDS011;13713;52.552;13.204;2022-12-18T12:56:06;74.88;;;30.15;;
25905;SDS011;13713;52.552;13.204;2022-12-18T13:01:21;74.05;;;30.00;;
25905;SDS011;13713;52.552;13.204;2022-12-18T13:15:41;70.93;;;29.38;;
25905;SDS011;13713;52.552;13.204;2022-12-18T13:20:35;71.60;;;28.77;;
25905;SDS011;13713;52.552;13.204;2022-12-18T13:25:51;71.38;;;29.05;;
25905;SDS011;13713;52.552;13.204;2022-12-18T13:31:01;70.60;;;29.75;;
25905;SDS011;13713;52.552;13.204;2022-12-18T13:36:00;74.97;;;29.20;;
25905;SDS011;13713;52.552;13.204;2022-12-18T13:41:02;68.10;;;29.15;;
25905;SDS011;13713;52.552;13.204;2022-12-18T13:48:25;65.32;;;28.70;;
25905;SDS011;13713;52.552;13.204;2022-12-18T13:50:57;71.75;;;30.30;;
25905;SDS011;13713;52.552;13.204;2022-12-18T13:53:36;74.63;;;30.38;;
25905;SDS011;13713;52.552;13.204;2022-12-18T13:56:07;74.80;;;29.60;;
25905;SDS011;13713;52.552;13.204;2022-12-18T13:58:32;72.70;;;29.40;;
25905;SDS011;13713;52.552;13.204;2022-12-18T14:00:58;71.47;;;29.27;;
25905;SDS011;13713;52.552;13.204;2022-12-18T14:03:25;75.70;;;29.27;;
25905;SDS011;13713;52.552;13.204;2022-12-18T14:05:59;75.60;;;30.40;;
25905;SDS011;13713;52.552;13.204;2022-12-18T14:08:38;72.93;;;30.70;;
25905;SDS011;13713;52.552;13.204;2022-12-18T14:11:05;73.40;;;30.48;;
25905;SDS011;13713;52.552;13.204;2022-12-18T14:13:35;71.32;;;30.55;;
25905;SDS011;13713;52.552;13.204;2022-12-18T14:16:03;72.32;;;29.05;;
25905;SDS011;13713;52.552;13.204;2022-12-18T14:20:57;68.90;;;28.98;;
25905;SDS011;13713;52.552;13.204;2022-12-18T14:23:29;69.15;;;29.80;;
25905;SDS011;13713;52.552;13.204;2022-12-18T14:25:59;73.13;;;29.73;;
25905;SDS011;13713;52.552;13.204;2022-12-18T14:28:26;68.18;;;29.30;;
25905;SDS011;13713;52.552;13.204;2022-12-18T14:30:52;73.35;;;30.63;;
25905;SDS011;13713;52.552;13.204;2022-12-18T14:33:26;69.18;;;28.88;;
25905;SDS011;13713;52.552;13.204;2022-12-18T14:35:59;77.75;;;31.55;;
25905;SDS011;13713;52.552;13.204;2022-12-18T14:38:34;71.95;;;30.90;;
25905;SDS011;13713;52.552;13.204;2022-12-18T14:41:11;68.47;;;29.88;;
25905;SDS011;13713;52.552;13.204;2022-12-18T14:43:39;72.03;;;30.15;;
25905;SDS011;13713;52.552;13.204;2022-12-18T14:48:54;74.90;;;30.20;;
25905;SDS011;13713;52.552;13.204;2022-12-18T14:51:24;70.90;;;30.63;;
25905;SDS011;13713;52.552;13.204;2022-12-18T14:54:06;70.35;;;29.77;;
25905;SDS011;13713;52.552;13.204;2022-12-18T14:56:43;68.35;;;29.60;;
25905;SDS011;13713;52.552;13.204;2022-12-18T14:59:21;69.60;;;31.40;;
25905;SDS011;13713;52.552;13.204;2022-12-18T15:02:11;75.60;;;32.58;;
25905;SDS011;13713;52.552;13.204;2022-12-18T15:04:43;81.28;;;33.55;;
25905;SDS011;13713;52.552;13.204;2022-12-18T15:09:38;74.38;;;32.13;;
25905;SDS011;13713;52.552;13.204;2022-12-18T15:12:15;78.45;;;31.70;;
25905;SDS011;13713;52.552;13.204;2022-12-18T15:14:49;80.25;;;32.33;;
25905;SDS011;13713;52.552;13.204;2022-12-18T15:17:19;81.72;;;32.35;;
25905;SDS011;13713;52.552;13.204;2022-12-18T15:19:50;87.60;;;33.65;;
25905;SDS011;13713;52.552;13.204;2022-12-18T15:24:46;79.07;;;33.78;;
25905;SDS011;13713;52.552;13.204;2022-12-18T15:27:22;77.88;;;33.75;;
25905;SDS011;13713;52.552;13.204;2022-12-18T15:32:35;81.22;;;33.63;;
25905;SDS011;13713;52.552;13.204;2022-12-18T15:35:03;85.75;;;34.92;;
25905;SDS011;13713;52.552;13.204;2022-12-18T15:37:48;76.30;;;32.20;;
25905;SDS011;13713;52.552;13.204;2022-12-18T15:40:14;90.03;;;34.75;;
25905;SDS011;13713;52.552;13.204;2022-12-18T15:42:42;85.22;;;36.38;;
25905;SDS011;13713;52.552;13.204;2022-12-18T15:45:27;81.30;;;34.08;;
25905;SDS011;13713;52.552;13.204;2022-12-18T15:47:53;86.72;;;35.58;;
25905;SDS011;13713;52.552;13.204;2022-12-18T15:50:19;86.55;;;35.95;;
25905;SDS011;13713;52.552;13.204;2022-12-18T15:52:45;86.15;;;34.50;;
25905;SDS011;13713;52.552;13.204;2022-12-18T15:55:13;80.30;;;34.10;;
25905;SDS011;13713;52.552;13.204;2022-12-18T15:57:59;85.72;;;35.65;;
25905;SDS011;13713;52.552;13.204;2022-12-18T16:00:25;83.82;;;35.80;;
25905;SDS011;13713;52.552;13.204;2022-12-18T16:02:50;82.97;;;34.90;;
25905;SDS011;13713;52.552;13.204;2022-12-18T16:05:17;81.40;;;34.95;;
25905;SDS011;13713;52.552;13.204;2022-12-18T16:07:44;83.43;;;36.20;;
25905;SDS011;13713;52.552;13.204;2022-12-18T16:10:10;86.18;;;34.00;;
25905;SDS011;13713;52.552;13.204;2022-12-18T16:12:36;85.88;;;34.85;;
25905;SDS011;13713;52.552;13.204;2022-12-18T16:15:02;81.32;;;34.40;;
25905;SDS011;13713;52.552;13.204;2022-12-18T16:17:29;81.80;;;35.13;;
25905;SDS011;13713;52.552;13.204;2022-12-18T16:19:55;83.43;;;35.90;;
25905;SDS011;13713;52.552;13.204;2022-12-18T16:22:21;82.93;;;34.45;;
25905;SDS011;13713;52.552;13.204;2022-12-18T16:24:52;82.55;;;34.60;;
25905;SDS011;13713;52.552;13.204;2022-12-18T16:27:18;80.57;;;35.42;;
25905;SDS011;13713;52.552;13.204;2022-12-18T16:29:45;79.45;;;34.20;;
25905;SDS011;13713;52.552;13.204;2022-12-18T16:32:12;78.63;;;34.85;;
25905;SDS011;13713;52.552;13.204;2022-12-18T16:34:43;82.45;;;34.83;;
25905;SDS011;13713;52.552;13.204;2022-12-18T16:37:09;82.18;;;35.13;;
25905;SDS011;13713;52.552;13.204;2022-12-18T16:39:36;78.90;;;34.95;;